Time,TemperatureF,DewpointF,PressureIn,WindDirection,WindDirectionDegrees,WindSpeedMPH,WindSpeedGustMPH,Humidity,HourlyPrecipIn,Conditions,Clouds,dailyrainin,SoftwareType,DateUTC
2013-09-02 00:00:00,67.1,65.9,29.80,South,189,0.0,0.0,96,0.00,,,0.34,VWS V14.01,2013-09-02 04:00:00,
2013-09-02 00:01:00,67.1,65.9,29.80,South,189,0.0,0.0,96,0.00,,,0.34,VWS V14.01,2013-09-02 04:01:00,
2013-09-02 00:02:00,67.1,65.9,29.80,South,189,0.0,0.0,96,0.00,,,0.00,VWS V14.01,2013-09-02 04:02:00,
2013-09-02 00:06:00,67.1,65.9,29.80,South,189,0.0,0.0,96,0.00,,,0.00,VWS V14.01,2013-09-02 04:06:00,
2013-09-02 00:11:00,67.3,66.1,29.80,South,189,0.0,0.0,96,0.00,,,0.00,VWS V14.01,2013-09-02 04:11:00,
2013-09-02 00:16:00,67.3,66.1,29.79,South,189,0.0,0.0,96,0.00,,,0.00,VWS V14.01,2013-09-02 04:16:00,
2013-09-02 00:21:00,67.3,66.1,29.79,South,189,0.0,0.0,96,0.00,,,0.00,VWS V14.01,2013-09-02 04:21:00,
2013-09-02 00:26:00,67.4,66.2,29.79,South,189,0.0,0.0,96,0.00,,,0.00,VWS V14.01,2013-09-02 04:26:00,
2013-09-02 00:32:00,67.6,66.7,29.79,South,189,0.0,0.0,97,0.00,,,0.00,VWS V14.01,2013-09-02 04:32:00,
2013-09-02 00:37:00,67.6,66.7,29.79,South,189,0.0,0.0,97,0.00,,,0.00,VWS V14.01,2013-09-02 04:37:00,
2013-09-02 00:42:00,67.6,66.7,29.79,South,189,0.0,0.0,97,0.00,,,0.00,VWS V14.01,2013-09-02 04:42:00,
2013-09-02 00:47:00,67.4,66.5,29.79,South,189,0.0,0.0,97,0.00,,,0.00,VWS V14.01,2013-09-02 04:47:00,
2013-09-02 00:52:00,67.4,66.5,29.79,South,189,0.0,0.0,97,0.00,,,0.00,VWS V14.01,2013-09-02 04:52:00,
2013-09-02 00:57:00,67.4,66.5,29.79,South,189,0.0,0.0,97,0.00,,,0.00,VWS V14.01,2013-09-02 04:57:00,
2013-09-02 01:02:00,67.3,66.1,29.79,South,189,0.0,0.0,96,0.00,,,0.00,VWS V14.01,2013-09-02 05:02:00,
2013-09-02 01:07:00,67.3,66.4,29.79,South,189,0.0,0.0,97,0.00,,,0.00,VWS V14.01,2013-09-02 05:07:00,
2013-09-02 01:12:00,67.3,66.4,29.79,South,189,0.0,0.0,97,0.00,,,0.00,VWS V14.01,2013-09-02 05:12:00,
2013-09-02 01:18:00,67.4,66.5,29.80,South,189,0.0,0.0,97,0.00,,,0.00,VWS V14.01,2013-09-02 05:18:00,
2013-09-02 01:23:00,67.9,67.0,29.80,South,189,0.0,0.0,97,0.00,,,0.00,VWS V14.01,2013-09-02 05:23:00,
2013-09-02 01:28:00,68.3,67.4,29.80,South,189,0.0,0.0,97,0.00,,,0.00,VWS V14.01,2013-09-02 05:28:00,
2013-09-02 01:33:00,68.3,67.4,29.79,South,189,0.0,0.0,97,0.00,,,0.00,VWS V14.01,2013-09-02 05:33:00,
2013-09-02 01:38:00,67.9,67.0,29.79,South,189,0.0,0.0,97,0.00,,,0.00,VWS V14.01,2013-09-02 05:38:00,
2013-09-02 01:43:00,67.6,66.7,29.79,South,189,0.0,0.0,97,0.00,,,0.00,VWS V14.01,2013-09-02 05:43:00,
2013-09-02 01:48:00,67.4,66.5,29.79,South,189,0.0,0.0,97,0.00,,,0.00,VWS V14.01,2013-09-02 05:48:00,
2013-09-02 01:53:00,67.4,66.5,29.79,South,189,0.0,0.0,97,0.00,,,0.00,VWS V14.01,2013-09-02 05:53:00,
2013-09-02 01:58:00,67.4,66.5,29.79,South,189,0.0,0.0,97,0.00,,,0.00,VWS V14.01,2013-09-02 05:58:00,
2013-09-02 02:03:00,67.4,66.5,29.79,South,189,0.0,0.0,97,0.00,,,0.00,VWS V14.01,2013-09-02 06:03:00,
2013-09-02 02:08:00,67.8,66.9,29.79,South,189,0.0,0.0,97,0.00,,,0.00,VWS V14.01,2013-09-02 06:08:00,
2013-09-02 02:13:00,68.3,67.4,29.79,South,189,0.0,0.0,97,0.00,,,0.00,VWS V14.01,2013-09-02 06:13:00,
2013-09-02 02:19:00,68.4,67.5,29.77,South,189,0.0,0.0,97,0.00,,,0.00,VWS V14.01,2013-09-02 06:19:00,
2013-09-02 02:24:00,68.6,67.7,29.77,South,189,0.0,0.0,97,0.00,,,0.00,VWS V14.01,2013-09-02 06:24:00,
2013-09-02 02:29:00,68.6,67.7,29.77,South,189,0.0,0.0,97,0.00,,,0.00,VWS V14.01,2013-09-02 06:29:00,
2013-09-02 02:34:00,68.4,67.5,29.77,South,189,0.0,0.0,97,0.00,,,0.00,VWS V14.01,2013-09-02 06:34:00,
2013-09-02 02:39:00,68.1,67.2,29.77,South,189,0.0,0.0,97,0.00,,,0.00,VWS V14.01,2013-09-02 06:39:00,
2013-09-02 02:44:00,67.8,66.9,29.77,South,189,0.0,0.0,97,0.00,,,0.00,VWS V14.01,2013-09-02 06:44:00,
2013-09-02 02:49:00,67.8,66.9,29.78,SSE,165,0.0,0.0,97,0.00,,,0.00,VWS V14.01,2013-09-02 06:49:00,
2013-09-02 02:54:00,67.6,66.7,29.78,SSE,165,0.0,0.0,97,0.00,,,0.00,VWS V14.01,2013-09-02 06:54:00,
2013-09-02 02:59:00,67.8,66.9,29.78,SSE,165,0.0,0.0,97,0.00,,,0.00,VWS V14.01,2013-09-02 06:59:00,
2013-09-02 03:04:00,67.6,66.7,29.78,SSE,165,0.0,0.0,97,0.00,,,0.00,VWS V14.01,2013-09-02 07:04:00,
2013-09-02 03:09:00,67.6,66.7,29.78,SSE,165,0.0,0.0,97,0.00,,,0.00,VWS V14.01,2013-09-02 07:09:00,
2013-09-02 03:14:00,67.8,66.9,29.78,SSE,165,0.0,0.0,97,0.00,,,0.00,VWS V14.01,2013-09-02 07:14:00,
2013-09-02 03:20:00,68.1,67.2,29.77,SSE,165,0.0,0.0,97,0.00,,,0.00,VWS V14.01,2013-09-02 07:20:00,
2013-09-02 03:25:00,68.1,67.2,29.77,SSE,165,0.0,0.0,97,0.00,,,0.00,VWS V14.01,2013-09-02 07:25:00,
2013-09-02 03:30:00,68.4,67.5,29.77,SSE,165,0.0,0.0,97,0.00,,,0.00,VWS V14.01,2013-09-02 07:30:00,
2013-09-02 03:35:00,68.6,67.7,29.78,SSE,165,0.0,0.0,97,0.00,,,0.00,VWS V14.01,2013-09-02 07:35:00,
2013-09-02 03:40:00,68.6,67.7,29.78,SSE,165,0.0,0.0,97,0.00,,,0.00,VWS V14.01,2013-09-02 07:40:00,
2013-09-02 03:45:00,68.6,67.7,29.78,SSE,165,0.0,0.0,97,0.00,,,0.00,VWS V14.01,2013-09-02 07:45:00,
2013-09-02 03:50:00,68.6,67.7,29.76,SSE,165,0.0,0.0,97,0.00,,,0.00,VWS V14.01,2013-09-02 07:50:00,
2013-09-02 03:55:00,68.4,67.5,29.76,SSE,165,0.0,0.0,97,0.00,,,0.00,VWS V14.01,2013-09-02 07:55:00,
2013-09-02 04:00:00,68.1,67.2,29.77,SSE,165,0.0,0.0,97,0.00,,,0.00,VWS V14.01,2013-09-02 08:00:00,
2013-09-02 04:05:00,68.1,67.2,29.77,SSE,165,0.0,0.0,97,0.00,,,0.00,VWS V14.01,2013-09-02 08:05:00,
2013-09-02 04:10:00,68.3,67.4,29.77,SSE,165,0.0,0.0,97,0.00,,,0.00,VWS V14.01,2013-09-02 08:10:00,
2013-09-02 04:16:00,68.3,67.4,29.76,SSE,165,0.0,0.0,97,0.00,,,0.00,VWS V14.01,2013-09-02 08:16:00,
2013-09-02 04:21:00,68.3,67.4,29.76,SSE,165,0.0,0.0,97,0.00,,,0.00,VWS V14.01,2013-09-02 08:21:00,
2013-09-02 04:26:00,68.3,67.4,29.76,SSE,165,0.0,0.0,97,0.00,,,0.00,VWS V14.01,2013-09-02 08:26:00,
2013-09-02 04:31:00,68.3,67.4,29.76,SSE,166,0.0,0.0,97,0.00,,,0.00,VWS V14.01,2013-09-02 08:31:00,
2013-09-02 04:36:00,68.3,67.4,29.76,SSE,165,0.0,0.0,97,0.00,,,0.00,VWS V14.01,2013-09-02 08:36:00,
2013-09-02 04:41:00,68.3,67.4,29.76,SSE,166,0.0,0.0,97,0.00,,,0.00,VWS V14.01,2013-09-02 08:41:00,
2013-09-02 04:46:00,68.4,67.5,29.77,SSE,165,0.0,0.0,97,0.00,,,0.00,VWS V14.01,2013-09-02 08:46:00,
2013-09-02 04:51:00,68.6,67.7,29.77,SSE,165,0.0,0.0,97,0.00,,,0.00,VWS V14.01,2013-09-02 08:51:00,
2013-09-02 04:56:00,68.6,67.7,29.77,SW,214,0.0,0.0,97,0.00,,,0.00,VWS V14.01,2013-09-02 08:56:00,
2013-09-02 05:01:00,68.6,67.7,29.76,SW,214,0.0,0.0,97,0.00,,,0.00,VWS V14.01,2013-09-02 09:01:00,
2013-09-02 05:06:00,68.6,67.7,29.76,SW,214,0.0,0.0,97,0.00,,,0.00,VWS V14.01,2013-09-02 09:06:00,
2013-09-02 05:11:00,68.6,67.7,29.76,SW,214,0.0,0.0,97,0.00,,,0.00,VWS V14.01,2013-09-02 09:11:00,
2013-09-02 05:16:00,68.6,67.7,29.76,SW,214,0.0,0.0,97,0.00,,,0.00,VWS V14.01,2013-09-02 09:16:00,
2013-09-02 05:21:00,68.6,67.7,29.76,SW,221,2.0,0.0,97,0.00,,,0.00,VWS V14.01,2013-09-02 09:21:00,
2013-09-02 05:26:00,68.6,67.7,29.76,West,279,4.0,0.0,97,0.00,,,0.00,VWS V14.01,2013-09-02 09:26:00,
2013-09-02 05:31:00,68.4,67.5,29.75,West,279,0.0,0.0,97,0.00,,,0.00,VWS V14.01,2013-09-02 09:31:00,
2013-09-02 05:36:00,68.4,67.5,29.75,SW,227,0.0,0.0,97,0.00,,,0.00,VWS V14.01,2013-09-02 09:36:00,
2013-09-02 05:41:00,68.4,67.5,29.75,SW,229,0.0,0.0,97,0.00,,,0.00,VWS V14.01,2013-09-02 09:41:00,
2013-09-02 05:46:00,68.4,67.5,29.76,SW,229,0.0,0.0,97,0.00,,,0.00,VWS V14.01,2013-09-02 09:46:00,
2013-09-02 05:52:00,68.4,67.5,29.76,SSW,195,0.0,0.0,97,0.00,,,0.00,VWS V14.01,2013-09-02 09:52:00,
2013-09-02 05:57:00,68.4,67.5,29.76,SSW,195,0.0,0.0,97,0.00,,,0.00,VWS V14.01,2013-09-02 09:57:00,
2013-09-02 06:02:00,68.3,67.4,29.76,SSW,195,0.0,0.0,97,0.00,,,0.00,VWS V14.01,2013-09-02 10:02:00,
2013-09-02 06:07:00,68.3,67.4,29.76,SSW,195,0.0,0.0,97,0.00,,,0.00,VWS V14.01,2013-09-02 10:07:00,
2013-09-02 06:12:00,68.3,67.4,29.76,SSW,195,0.0,0.0,97,0.00,,,0.00,VWS V14.01,2013-09-02 10:12:00,
2013-09-02 06:17:00,68.3,67.4,29.77,SSW,195,0.0,0.0,97,0.00,,,0.00,VWS V14.01,2013-09-02 10:17:00,
2013-09-02 06:22:00,68.3,67.4,29.77,SSW,195,0.0,0.0,97,0.00,,,0.00,VWS V14.01,2013-09-02 10:22:00,
2013-09-02 06:27:00,68.3,67.4,29.77,SSW,195,0.0,0.0,97,0.00,,,0.00,VWS V14.01,2013-09-02 10:27:00,
2013-09-02 06:32:00,68.3,67.4,29.78,SE,141,0.0,0.0,97,0.00,,,0.00,VWS V14.01,2013-09-02 10:32:00,
2013-09-02 06:37:00,68.3,67.4,29.78,SE,141,0.0,0.0,97,0.00,,,0.00,VWS V14.01,2013-09-02 10:37:00,
2013-09-02 06:42:00,68.3,67.4,29.78,SE,142,0.0,0.0,97,0.00,,,0.00,VWS V14.01,2013-09-02 10:42:00,
2013-09-02 06:47:00,68.3,67.4,29.78,SE,142,0.0,0.0,97,0.00,,,0.00,VWS V14.01,2013-09-02 10:47:00,
2013-09-02 06:52:00,68.3,67.4,29.78,SE,142,0.0,0.0,97,0.00,,,0.00,VWS V14.01,2013-09-02 10:52:00,
2013-09-02 06:57:00,68.4,67.5,29.78,SE,142,0.0,0.0,97,0.00,,,0.00,VWS V14.01,2013-09-02 10:57:00,
2013-09-02 07:02:00,68.4,67.5,29.78,SE,142,0.0,0.0,97,0.00,,,0.00,VWS V14.01,2013-09-02 11:02:00,
2013-09-02 07:07:00,68.3,67.4,29.78,SE,142,0.0,0.0,97,0.00,,,0.00,VWS V14.01,2013-09-02 11:07:00,
2013-09-02 07:12:00,68.1,67.2,29.78,SE,142,0.0,0.0,97,0.00,,,0.00,VWS V14.01,2013-09-02 11:12:00,
2013-09-02 07:17:00,67.9,67.0,29.80,SE,142,0.0,0.0,97,0.00,,,0.00,VWS V14.01,2013-09-02 11:17:00,
2013-09-02 07:22:00,67.9,67.0,29.80,WSW,248,2.0,0.0,97,0.00,,,0.00,VWS V14.01,2013-09-02 11:22:00,
2013-09-02 07:27:00,67.8,66.9,29.80,WSW,248,0.0,0.0,97,0.00,,,0.00,VWS V14.01,2013-09-02 11:27:00,
2013-09-02 07:32:00,67.8,66.9,29.81,WSW,248,0.0,0.0,97,0.00,,,0.00,VWS V14.01,2013-09-02 11:32:00,
2013-09-02 07:37:00,67.9,67.0,29.81,WSW,248,0.0,0.0,97,0.00,,,0.00,VWS V14.01,2013-09-02 11:37:00,
2013-09-02 07:42:00,67.9,67.0,29.81,WSW,248,0.0,0.0,97,0.00,,,0.00,VWS V14.01,2013-09-02 11:42:00,
2013-09-02 07:47:00,67.9,67.0,29.81,WSW,248,0.0,0.0,97,0.00,,,0.00,VWS V14.01,2013-09-02 11:47:00,
2013-09-02 07:53:00,67.9,67.0,29.81,WSW,248,0.0,0.0,97,0.00,,,0.00,VWS V14.01,2013-09-02 11:53:00,
2013-09-02 07:58:00,67.9,67.0,29.81,WSW,248,0.0,0.0,97,0.00,,,0.00,VWS V14.01,2013-09-02 11:58:00,
2013-09-02 08:03:00,68.1,67.2,29.81,WSW,248,0.0,0.0,97,0.00,,,0.00,VWS V14.01,2013-09-02 12:03:00,
2013-09-02 08:08:00,68.1,67.2,29.81,WSW,248,0.0,0.0,97,0.00,,,0.00,VWS V14.01,2013-09-02 12:08:00,
2013-09-02 08:13:00,68.1,67.2,29.81,WSW,248,0.0,0.0,97,0.00,,,0.00,VWS V14.01,2013-09-02 12:13:00,
2013-09-02 08:18:00,68.1,67.2,29.82,WSW,248,0.0,0.0,97,0.00,,,0.00,VWS V14.01,2013-09-02 12:18:00,
2013-09-02 08:23:00,68.1,67.2,29.82,WSW,248,0.0,0.0,97,0.00,,,0.00,VWS V14.01,2013-09-02 12:23:00,
2013-09-02 08:28:00,68.3,67.4,29.82,WSW,248,0.0,0.0,97,0.00,,,0.00,VWS V14.01,2013-09-02 12:28:00,
2013-09-02 08:33:00,68.3,67.7,29.82,WSW,248,0.0,0.0,98,0.00,,,0.00,VWS V14.01,2013-09-02 12:33:00,
2013-09-02 08:38:00,68.4,67.8,29.82,WSW,248,1.0,0.0,98,0.00,,,0.00,VWS V14.01,2013-09-02 12:38:00,
2013-09-02 08:43:00,68.4,67.8,29.82,WSW,248,0.0,0.0,98,0.00,,,0.00,VWS V14.01,2013-09-02 12:43:00,
2013-09-02 08:48:00,68.4,67.5,29.82,WSW,248,0.0,0.0,97,0.00,,,0.00,VWS V14.01,2013-09-02 12:48:00,
2013-09-02 08:53:00,68.4,67.8,29.82,WSW,248,0.0,0.0,98,0.00,,,0.00,VWS V14.01,2013-09-02 12:53:00,
2013-09-02 08:58:00,68.8,68.2,29.82,WSW,248,0.0,0.0,98,0.00,,,0.00,VWS V14.01,2013-09-02 12:58:00,
2013-09-02 09:03:00,68.9,68.3,29.82,WSW,249,2.0,0.0,98,0.00,,,0.00,VWS V14.01,2013-09-02 13:03:00,
2013-09-02 09:08:00,68.8,67.9,29.82,WSW,249,0.0,0.0,97,0.00,,,0.00,VWS V14.01,2013-09-02 13:08:00,
2013-09-02 09:13:00,68.9,68.0,29.82,WSW,249,0.0,0.0,97,0.00,,,0.00,VWS V14.01,2013-09-02 13:13:00,
2013-09-02 09:18:00,69.1,68.2,29.83,WSW,249,0.0,0.0,97,0.00,,,0.00,VWS V14.01,2013-09-02 13:18:00,
2013-09-02 09:23:00,69.3,68.4,29.83,WSW,249,0.0,0.0,97,0.00,,,0.00,VWS V14.01,2013-09-02 13:23:00,
2013-09-02 09:28:00,69.4,68.5,29.83,WSW,249,1.0,0.0,97,0.00,,,0.00,VWS V14.01,2013-09-02 13:28:00,
2013-09-02 09:33:00,69.3,68.4,29.83,WSW,249,0.0,0.0,97,0.00,,,0.00,VWS V14.01,2013-09-02 13:33:00,
2013-09-02 09:38:00,69.4,68.2,29.83,WSW,249,0.0,0.0,96,0.00,,,0.00,VWS V14.01,2013-09-02 13:38:00,
2013-09-02 09:43:00,69.6,68.4,29.83,WSW,249,0.0,0.0,96,0.00,,,0.00,VWS V14.01,2013-09-02 13:43:00,
2013-09-02 09:49:00,69.9,68.7,29.83,WSW,249,0.0,0.0,96,0.00,,,0.00,VWS V14.01,2013-09-02 13:49:00,
2013-09-02 09:54:00,70.3,69.1,29.83,WSW,249,0.0,0.0,96,0.00,,,0.00,VWS V14.01,2013-09-02 13:54:00,
2013-09-02 09:59:00,70.4,68.9,29.83,West,269,0.0,0.0,95,0.00,,,0.00,VWS V14.01,2013-09-02 13:59:00,
2013-09-02 10:04:00,70.8,69.0,29.83,WNW,300,0.0,0.0,94,0.00,,,0.00,VWS V14.01,2013-09-02 14:04:00,
2013-09-02 10:09:00,71.1,69.0,29.83,WNW,284,4.0,0.0,93,0.00,,,0.00,VWS V14.01,2013-09-02 14:09:00,
2013-09-02 10:14:00,71.3,68.9,29.83,ENE,62,1.0,0.0,92,0.00,,,0.00,VWS V14.01,2013-09-02 14:14:00,
2013-09-02 10:19:00,71.5,68.7,29.83,West,269,0.0,0.0,91,0.00,,,0.00,VWS V14.01,2013-09-02 14:19:00,
2013-09-02 10:24:00,71.6,68.8,29.83,WSW,245,0.0,0.0,91,0.00,,,0.00,VWS V14.01,2013-09-02 14:24:00,
2013-09-02 10:29:00,71.6,68.5,29.83,WNW,290,2.0,0.0,90,0.00,,,0.00,VWS V14.01,2013-09-02 14:29:00,
2013-09-02 10:34:00,71.5,68.7,29.84,WNW,290,0.0,0.0,91,0.00,,,0.00,VWS V14.01,2013-09-02 14:34:00,
2013-09-02 10:39:00,71.6,68.8,29.84,WNW,290,0.0,0.0,91,0.00,,,0.00,VWS V14.01,2013-09-02 14:39:00,
2013-09-02 10:44:00,71.8,68.7,29.84,WNW,288,2.0,0.0,90,0.00,,,0.00,VWS V14.01,2013-09-02 14:44:00,
2013-09-02 10:49:00,71.8,69.0,29.84,West,267,2.0,0.0,91,0.00,,,0.00,VWS V14.01,2013-09-02 14:49:00,
2013-09-02 10:54:00,72.0,68.9,29.84,West,267,0.0,0.0,90,0.00,,,0.00,VWS V14.01,2013-09-02 14:54:00,
2013-09-02 10:59:00,72.1,69.0,29.84,West,267,0.0,0.0,90,0.00,,,0.00,VWS V14.01,2013-09-02 14:59:00,
2013-09-02 11:04:00,72.5,69.1,29.84,West,267,0.0,0.0,89,0.00,,,0.00,VWS V14.01,2013-09-02 15:04:00,
2013-09-02 11:09:00,72.7,68.9,29.84,WSW,238,0.0,0.0,88,0.00,,,0.00,VWS V14.01,2013-09-02 15:09:00,
2013-09-02 11:14:00,72.8,69.0,29.84,West,269,0.0,0.0,88,0.00,,,0.00,VWS V14.01,2013-09-02 15:14:00,
2013-09-02 11:19:00,73.2,69.4,29.85,West,269,2.0,0.0,88,0.00,,,0.00,VWS V14.01,2013-09-02 15:19:00,
2013-09-02 11:24:00,73.2,68.8,29.85,West,259,0.0,0.0,86,0.00,,,0.00,VWS V14.01,2013-09-02 15:24:00,
2013-09-02 11:29:00,73.7,69.6,29.85,West,259,2.0,0.0,87,0.00,,,0.00,VWS V14.01,2013-09-02 15:29:00,
2013-09-02 11:34:00,73.9,68.4,29.85,WSW,242,0.0,0.0,83,0.00,,,0.00,VWS V14.01,2013-09-02 15:34:00,
2013-09-02 11:40:00,74.4,68.6,29.85,West,280,0.0,0.0,82,0.00,,,0.00,VWS V14.01,2013-09-02 15:40:00,
2013-09-02 11:45:00,74.4,68.9,29.85,West,261,0.0,0.0,83,0.00,,,0.00,VWS V14.01,2013-09-02 15:45:00,
2013-09-02 11:50:00,74.6,69.1,29.85,West,267,1.0,0.0,83,0.00,,,0.00,VWS V14.01,2013-09-02 15:50:00,
2013-09-02 11:55:00,74.7,69.2,29.85,NW,313,1.0,0.0,83,0.00,,,0.00,VWS V14.01,2013-09-02 15:55:00,
2013-09-02 12:00:00,74.7,69.2,29.85,WNW,294,0.0,0.0,83,0.00,,,0.00,VWS V14.01,2013-09-02 16:00:00,
2013-09-02 12:05:00,74.7,69.2,29.84,WNW,294,0.0,0.0,83,0.00,,,0.00,VWS V14.01,2013-09-02 16:05:00,
2013-09-02 12:10:00,74.9,69.4,29.84,WNW,282,0.0,0.0,83,0.00,,,0.00,VWS V14.01,2013-09-02 16:10:00,
2013-09-02 12:15:00,75.1,69.6,29.84,WNW,282,0.0,0.0,83,0.00,,,0.00,VWS V14.01,2013-09-02 16:15:00,
2013-09-02 12:20:00,75.8,69.2,29.84,WNW,282,0.0,0.0,80,0.00,,,0.00,VWS V14.01,2013-09-02 16:20:00,
2013-09-02 12:25:00,76.5,69.1,29.84,WNW,282,1.0,0.0,78,0.00,,,0.00,VWS V14.01,2013-09-02 16:25:00,
2013-09-02 12:30:00,76.5,69.1,29.84,WNW,282,0.0,0.0,78,0.00,,,0.00,VWS V14.01,2013-09-02 16:30:00,
2013-09-02 12:35:00,76.5,69.1,29.83,WNW,282,2.0,0.0,78,0.00,,,0.00,VWS V14.01,2013-09-02 16:35:00,
2013-09-02 12:40:00,76.3,69.3,29.83,WNW,282,0.0,0.0,79,0.00,,,0.00,VWS V14.01,2013-09-02 16:40:00,
2013-09-02 12:45:00,76.1,68.4,29.84,SW,227,0.0,0.0,77,0.00,,,0.00,VWS V14.01,2013-09-02 16:45:00,
2013-09-02 12:51:00,76.5,68.8,29.84,SW,215,3.0,0.0,77,0.00,,,0.00,VWS V14.01,2013-09-02 16:51:00,
2013-09-02 12:56:00,76.7,67.8,29.84,West,269,0.0,0.0,74,0.00,,,0.00,VWS V14.01,2013-09-02 16:56:00,
2013-09-02 13:01:00,77.0,68.1,29.83,WSW,244,0.0,0.0,74,0.00,,,0.00,VWS V14.01,2013-09-02 17:01:00,
2013-09-02 13:06:00,77.4,68.5,29.83,WSW,251,2.0,0.0,74,0.00,,,0.00,VWS V14.01,2013-09-02 17:06:00,
2013-09-02 13:11:00,78.1,67.9,29.83,West,267,2.0,0.0,71,0.00,,,0.00,VWS V14.01,2013-09-02 17:11:00,
2013-09-02 13:16:00,78.3,67.7,29.83,NNW,332,5.0,0.0,70,0.00,,,0.00,VWS V14.01,2013-09-02 17:16:00,
2013-09-02 13:21:00,78.6,68.8,29.83,SW,231,0.0,0.0,72,0.00,,,0.00,VWS V14.01,2013-09-02 17:21:00,
2013-09-02 13:26:00,79.2,66.9,29.83,West,281,0.0,0.0,66,0.00,,,0.00,VWS V14.01,2013-09-02 17:26:00,
2013-09-02 13:31:00,79.4,67.5,29.83,South,182,0.0,0.0,67,0.00,,,0.00,VWS V14.01,2013-09-02 17:31:00,
2013-09-02 13:36:00,79.8,67.9,29.83,NW,319,0.0,0.0,67,0.00,,,0.00,VWS V14.01,2013-09-02 17:36:00,
2013-09-02 13:41:00,79.4,67.5,29.83,SSW,196,2.0,0.0,67,0.00,,,0.00,VWS V14.01,2013-09-02 17:41:00,
2013-09-02 13:46:00,79.4,67.9,29.82,WNW,300,1.0,0.0,68,0.00,,,0.00,VWS V14.01,2013-09-02 17:46:00,
2013-09-02 13:51:00,79.9,68.4,29.82,SW,227,2.0,0.0,68,0.00,,,0.00,VWS V14.01,2013-09-02 17:51:00,
2013-09-02 13:56:00,80.5,69.0,29.82,WSW,244,1.0,0.0,68,0.00,,,0.00,VWS V14.01,2013-09-02 17:56:00,
2013-09-02 14:01:00,80.9,69.8,29.81,WSW,244,2.0,0.0,69,0.00,,,0.00,VWS V14.01,2013-09-02 18:01:00,
2013-09-02 14:07:00,81.1,69.1,29.81,WSW,244,0.0,0.0,67,0.00,,,0.00,VWS V14.01,2013-09-02 18:07:00,
2013-09-02 14:12:00,81.1,68.7,29.81,West,263,0.0,0.0,66,0.00,,,0.00,VWS V14.01,2013-09-02 18:12:00,
2013-09-02 14:17:00,80.9,68.9,29.81,SW,234,0.0,0.0,67,0.00,,,0.00,VWS V14.01,2013-09-02 18:17:00,
2013-09-02 14:22:00,80.9,68.9,29.81,SSW,197,0.0,0.0,67,0.00,,,0.00,VWS V14.01,2013-09-02 18:22:00,
2013-09-02 14:27:00,81.2,68.8,29.81,West,265,0.0,0.0,66,0.00,,,0.00,VWS V14.01,2013-09-02 18:27:00,
2013-09-02 14:32:00,81.6,68.7,29.80,WSW,244,1.0,0.0,65,0.00,,,0.00,VWS V14.01,2013-09-02 18:32:00,
2013-09-02 14:37:00,81.6,69.2,29.80,West,275,0.0,0.0,66,0.00,,,0.00,VWS V14.01,2013-09-02 18:37:00,
2013-09-02 14:42:00,81.6,69.2,29.80,West,275,2.0,0.0,66,0.00,,,0.00,VWS V14.01,2013-09-02 18:42:00,
2013-09-02 14:47:00,82.2,69.3,29.79,West,259,0.0,0.0,65,0.00,,,0.00,VWS V14.01,2013-09-02 18:47:00,
2013-09-02 14:52:00,83.2,68.8,29.79,WSW,251,2.0,0.0,62,0.00,,,0.00,VWS V14.01,2013-09-02 18:52:00,
2013-09-02 14:58:00,83.4,69.0,29.79,WNW,292,0.0,0.0,62,0.00,,,0.00,VWS V14.01,2013-09-02 18:58:00,
2013-09-02 15:03:00,84.0,70.1,29.78,SW,231,1.0,0.0,63,0.00,,,0.00,VWS V14.01,2013-09-02 19:03:00,
2013-09-02 15:08:00,84.0,70.5,29.78,NW,304,1.0,0.0,64,0.00,,,0.00,VWS V14.01,2013-09-02 19:08:00,
2013-09-02 15:13:00,84.3,69.4,29.78,WNW,294,1.0,0.0,61,0.00,,,0.00,VWS V14.01,2013-09-02 19:13:00,
2013-09-02 15:18:00,84.0,68.6,29.77,NW,311,0.0,0.0,60,0.00,,,0.00,VWS V14.01,2013-09-02 19:18:00,
2013-09-02 15:23:00,83.6,69.2,29.77,WSW,241,2.0,0.0,62,0.00,,,0.00,VWS V14.01,2013-09-02 19:23:00,
2013-09-02 15:28:00,83.2,69.8,29.77,West,259,0.0,0.0,64,0.00,,,0.00,VWS V14.01,2013-09-02 19:28:00,
2013-09-02 15:33:00,83.4,69.5,29.77,WSW,238,0.0,0.0,63,0.00,,,0.00,VWS V14.01,2013-09-02 19:33:00,
2013-09-02 15:38:00,83.4,69.9,29.77,SW,233,1.0,0.0,64,0.00,,,0.00,VWS V14.01,2013-09-02 19:38:00,
2013-09-02 15:43:00,83.8,69.4,29.77,WNW,303,0.0,0.0,62,0.00,,,0.00,VWS V14.01,2013-09-02 19:43:00,
2013-09-02 15:49:00,83.8,69.4,29.76,WSW,247,2.0,0.0,62,0.00,,,0.00,VWS V14.01,2013-09-02 19:49:00,
2013-09-02 15:54:00,83.8,69.4,29.76,WSW,252,1.0,0.0,62,0.00,,,0.00,VWS V14.01,2013-09-02 19:54:00,
2013-09-02 15:59:00,84.0,69.6,29.76,West,280,2.0,0.0,62,0.00,,,0.00,VWS V14.01,2013-09-02 19:59:00,
2013-09-02 16:04:00,84.0,69.1,29.75,West,268,3.0,0.0,61,0.00,,,0.00,VWS V14.01,2013-09-02 20:04:00,
2013-09-02 16:09:00,83.8,69.9,29.75,ENE,71,0.0,0.0,63,0.00,,,0.00,VWS V14.01,2013-09-02 20:09:00,
2013-09-02 16:14:00,83.8,69.4,29.75,ENE,60,0.0,0.0,62,0.00,,,0.00,VWS V14.01,2013-09-02 20:14:00,
2013-09-02 16:19:00,84.1,69.7,29.75,WNW,298,0.0,0.0,62,0.00,,,0.00,VWS V14.01,2013-09-02 20:19:00,
2013-09-02 16:24:00,84.5,69.1,29.75,WSW,239,2.0,0.0,60,0.00,,,0.00,VWS V14.01,2013-09-02 20:24:00,
2013-09-02 16:29:00,84.0,69.6,29.75,West,262,2.0,0.0,62,0.00,,,0.00,VWS V14.01,2013-09-02 20:29:00,
2013-09-02 16:34:00,83.4,69.9,29.75,WSW,239,2.0,0.0,64,0.00,,,0.00,VWS V14.01,2013-09-02 20:34:00,
2013-09-02 16:39:00,83.2,70.2,29.75,WNW,283,2.0,0.0,65,0.00,,,0.00,VWS V14.01,2013-09-02 20:39:00,
2013-09-02 16:44:00,82.8,70.3,29.75,SW,236,1.0,0.0,66,0.00,,,0.00,VWS V14.01,2013-09-02 20:44:00,
2013-09-02 16:50:00,82.6,69.7,29.75,WSW,250,2.0,0.0,65,0.00,,,0.00,VWS V14.01,2013-09-02 20:50:00,
2013-09-02 16:55:00,81.8,69.3,29.75,SW,233,0.0,0.0,66,0.00,,,0.00,VWS V14.01,2013-09-02 20:55:00,
2013-09-02 17:00:00,81.4,69.8,29.75,WNW,296,0.0,0.0,68,0.00,,,0.00,VWS V14.01,2013-09-02 21:00:00,
2013-09-02 17:05:00,80.9,69.8,29.74,ESE,113,0.0,0.0,69,0.00,,,0.00,VWS V14.01,2013-09-02 21:05:00,
2013-09-02 17:10:00,80.5,69.4,29.74,West,271,0.0,0.0,69,0.00,,,0.00,VWS V14.01,2013-09-02 21:10:00,
2013-09-02 17:15:00,80.3,69.2,29.74,West,271,0.0,0.0,69,0.00,,,0.00,VWS V14.01,2013-09-02 21:15:00,
2013-09-02 17:20:00,80.3,70.1,29.74,West,271,0.0,0.0,71,0.00,,,0.00,VWS V14.01,2013-09-02 21:20:00,
2013-09-02 17:25:00,80.5,69.8,29.74,West,271,0.0,0.0,70,0.00,,,0.00,VWS V14.01,2013-09-02 21:25:00,
2013-09-02 17:30:00,80.9,69.8,29.74,SSW,201,2.0,0.0,69,0.00,,,0.00,VWS V14.01,2013-09-02 21:30:00,
2013-09-02 17:35:00,80.9,69.8,29.74,West,260,2.0,0.0,69,0.00,,,0.00,VWS V14.01,2013-09-02 21:35:00,
2013-09-02 17:41:00,81.1,69.6,29.74,West,266,0.0,0.0,68,0.00,,,0.00,VWS V14.01,2013-09-02 21:41:00,
2013-09-02 17:46:00,81.1,68.7,29.74,WSW,251,4.0,0.0,66,0.00,,,0.00,VWS V14.01,2013-09-02 21:46:00,
2013-09-02 17:51:00,80.9,69.8,29.74,West,270,0.0,0.0,69,0.00,,,0.00,VWS V14.01,2013-09-02 21:51:00,
2013-09-02 17:56:00,80.3,69.2,29.74,WSW,248,0.0,0.0,69,0.00,,,0.00,VWS V14.01,2013-09-02 21:56:00,
2013-09-02 18:01:00,80.1,69.0,29.74,SW,235,2.0,0.0,69,0.00,,,0.00,VWS V14.01,2013-09-02 22:01:00,
2013-09-02 18:06:00,80.3,69.6,29.74,WSW,247,0.0,0.0,70,0.00,,,0.00,VWS V14.01,2013-09-02 22:06:00,
2013-09-02 18:11:00,80.3,69.2,29.74,SSW,197,1.0,0.0,69,0.00,,,0.00,VWS V14.01,2013-09-02 22:11:00,
2013-09-02 18:16:00,80.3,70.1,29.74,WSW,256,3.0,0.0,71,0.00,,,0.00,VWS V14.01,2013-09-02 22:16:00,
2013-09-02 18:21:00,80.1,70.3,29.74,WSW,244,2.0,0.0,72,0.00,,,0.00,VWS V14.01,2013-09-02 22:21:00,
2013-09-02 18:26:00,79.8,70.0,29.74,WSW,242,1.0,0.0,72,0.00,,,0.00,VWS V14.01,2013-09-02 22:26:00,
2013-09-02 18:31:00,79.4,70.0,29.75,WSW,252,0.0,0.0,73,0.00,,,0.00,VWS V14.01,2013-09-02 22:31:00,
2013-09-02 18:36:00,79.0,70.4,29.75,NW,314,0.0,0.0,75,0.00,,,0.00,VWS V14.01,2013-09-02 22:36:00,
2013-09-02 18:42:00,78.6,70.4,29.75,WNW,282,0.0,0.0,76,0.00,,,0.00,VWS V14.01,2013-09-02 22:42:00,
2013-09-02 18:47:00,78.1,70.3,29.75,WSW,245,1.0,0.0,77,0.00,,,0.00,VWS V14.01,2013-09-02 22:47:00,
2013-09-02 18:52:00,77.7,69.9,29.75,WSW,239,0.0,0.0,77,0.00,,,0.00,VWS V14.01,2013-09-02 22:52:00,
2013-09-02 18:57:00,77.6,69.8,29.75,WSW,256,1.0,0.0,77,0.00,,,0.00,VWS V14.01,2013-09-02 22:57:00,
2013-09-02 19:02:00,77.4,70.4,29.74,WSW,252,3.0,0.0,79,0.00,,,0.00,VWS V14.01,2013-09-02 23:02:00,
2013-09-02 19:07:00,77.0,70.4,29.74,WSW,252,0.0,0.0,80,0.00,,,0.00,VWS V14.01,2013-09-02 23:07:00,
2013-09-02 19:12:00,76.8,70.2,29.74,WSW,252,0.0,0.0,80,0.00,,,0.00,VWS V14.01,2013-09-02 23:12:00,
2013-09-02 19:17:00,76.7,70.1,29.75,WSW,252,1.0,0.0,80,0.00,,,0.00,VWS V14.01,2013-09-02 23:17:00,
2013-09-02 19:22:00,76.5,69.9,29.75,SSE,164,0.0,0.0,80,0.00,,,0.00,VWS V14.01,2013-09-02 23:22:00,
2013-09-02 19:27:00,76.3,70.1,29.75,SSE,164,0.0,0.0,81,0.00,,,0.00,VWS V14.01,2013-09-02 23:27:00,
2013-09-02 19:33:00,76.1,69.8,29.75,SE,126,0.0,0.0,81,0.00,,,0.00,VWS V14.01,2013-09-02 23:33:00,
2013-09-02 19:38:00,76.0,70.1,29.75,West,280,0.0,0.0,82,0.00,,,0.00,VWS V14.01,2013-09-02 23:38:00,
2013-09-02 19:43:00,75.6,69.7,29.75,West,280,0.0,0.0,82,0.00,,,0.00,VWS V14.01,2013-09-02 23:43:00,
2013-09-02 19:48:00,75.4,69.5,29.75,West,280,0.0,0.0,82,0.00,,,0.00,VWS V14.01,2013-09-02 23:48:00,
2013-09-02 19:53:00,75.3,69.8,29.75,West,280,0.0,0.0,83,0.00,,,0.00,VWS V14.01,2013-09-02 23:53:00,
2013-09-02 19:58:00,74.9,69.7,29.75,West,280,0.0,0.0,84,0.00,,,0.00,VWS V14.01,2013-09-02 23:58:00,
2013-09-02 20:03:00,74.7,69.6,29.75,West,280,0.0,0.0,84,0.00,,,0.00,VWS V14.01,2013-09-03 00:03:00,
2013-09-02 20:08:00,74.6,69.8,29.75,West,280,0.0,0.0,85,0.00,,,0.00,VWS V14.01,2013-09-03 00:08:00,
2013-09-02 20:13:00,74.2,69.8,29.75,West,280,0.0,0.0,86,0.00,,,0.00,VWS V14.01,2013-09-03 00:13:00,
2013-09-02 20:18:00,74.0,69.9,29.77,West,280,0.0,0.0,87,0.00,,,0.00,VWS V14.01,2013-09-03 00:18:00,
2013-09-02 20:23:00,73.7,69.9,29.77,West,280,0.0,0.0,88,0.00,,,0.00,VWS V14.01,2013-09-03 00:23:00,
2013-09-02 20:29:00,73.3,69.5,29.77,West,280,0.0,0.0,88,0.00,,,0.00,VWS V14.01,2013-09-03 00:29:00,
2013-09-02 20:34:00,73.0,69.2,29.78,West,280,0.0,0.0,88,0.00,,,0.00,VWS V14.01,2013-09-03 00:34:00,
2013-09-02 20:39:00,73.0,69.2,29.78,West,280,0.0,0.0,88,0.00,,,0.00,VWS V14.01,2013-09-03 00:39:00,
2013-09-02 20:44:00,72.7,69.3,29.78,West,280,0.0,0.0,89,0.00,,,0.00,VWS V14.01,2013-09-03 00:44:00,
2013-09-02 20:49:00,72.5,69.1,29.79,West,280,0.0,0.0,89,0.00,,,0.00,VWS V14.01,2013-09-03 00:49:00,
2013-09-02 20:54:00,72.5,69.1,29.79,West,280,0.0,0.0,89,0.00,,,0.00,VWS V14.01,2013-09-03 00:54:00,
2013-09-02 20:59:00,72.5,69.1,29.79,West,280,0.0,0.0,89,0.00,,,0.00,VWS V14.01,2013-09-03 00:59:00,
2013-09-02 21:04:00,72.5,69.1,29.78,West,280,0.0,0.0,89,0.00,,,0.00,VWS V14.01,2013-09-03 01:04:00,
2013-09-02 21:09:00,72.3,69.2,29.78,West,280,0.0,0.0,90,0.00,,,0.00,VWS V14.01,2013-09-03 01:09:00,
2013-09-02 21:14:00,72.3,69.2,29.78,West,280,0.0,0.0,90,0.00,,,0.00,VWS V14.01,2013-09-03 01:14:00,
2013-09-02 21:20:00,72.1,69.3,29.78,West,280,0.0,0.0,91,0.00,,,0.00,VWS V14.01,2013-09-03 01:20:00,
2013-09-02 21:25:00,72.0,69.2,29.78,West,280,0.0,0.0,91,0.00,,,0.00,VWS V14.01,2013-09-03 01:25:00,
2013-09-02 21:30:00,72.0,69.2,29.78,West,280,0.0,0.0,91,0.00,,,0.00,VWS V14.01,2013-09-03 01:30:00,
2013-09-02 21:35:00,72.0,69.2,29.78,West,280,0.0,0.0,91,0.00,,,0.00,VWS V14.01,2013-09-03 01:35:00,
2013-09-02 21:40:00,71.8,69.3,29.78,West,280,0.0,0.0,92,0.00,,,0.00,VWS V14.01,2013-09-03 01:40:00,
2013-09-02 21:45:00,71.6,69.2,29.78,West,280,0.0,0.0,92,0.00,,,0.00,VWS V14.01,2013-09-03 01:45:00,
2013-09-02 21:50:00,71.5,69.1,29.78,West,280,0.0,0.0,92,0.00,,,0.00,VWS V14.01,2013-09-03 01:50:00,
2013-09-02 21:55:00,71.1,68.7,29.78,West,280,0.0,0.0,92,0.00,,,0.00,VWS V14.01,2013-09-03 01:55:00,
2013-09-02 22:00:00,70.8,68.4,29.78,West,280,0.0,0.0,92,0.00,,,0.00,VWS V14.01,2013-09-03 02:00:00,
2013-09-02 22:05:00,70.6,68.2,29.78,West,280,0.0,0.0,92,0.00,,,0.00,VWS V14.01,2013-09-03 02:05:00,
2013-09-02 22:10:00,70.4,68.3,29.78,West,280,0.0,0.0,93,0.00,,,0.00,VWS V14.01,2013-09-03 02:10:00,
2013-09-02 22:16:00,70.3,68.2,29.78,West,280,0.0,0.0,93,0.00,,,0.00,VWS V14.01,2013-09-03 02:16:00,
2013-09-02 22:21:00,70.3,68.2,29.78,West,280,0.0,0.0,93,0.00,,,0.00,VWS V14.01,2013-09-03 02:21:00,
2013-09-02 22:26:00,70.3,68.5,29.78,West,280,0.0,0.0,94,0.00,,,0.00,VWS V14.01,2013-09-03 02:26:00,
2013-09-02 22:31:00,70.3,68.5,29.77,West,280,0.0,0.0,94,0.00,,,0.00,VWS V14.01,2013-09-03 02:31:00,
2013-09-02 22:36:00,70.1,68.3,29.77,West,280,0.0,0.0,94,0.00,,,0.00,VWS V14.01,2013-09-03 02:36:00,
2013-09-02 22:41:00,69.9,68.1,29.77,West,280,0.0,0.0,94,0.00,,,0.00,VWS V14.01,2013-09-03 02:41:00,
2013-09-02 22:46:00,69.8,68.0,29.77,West,280,0.0,0.0,94,0.00,,,0.00,VWS V14.01,2013-09-03 02:46:00,
2013-09-02 22:51:00,69.6,67.8,29.77,West,280,0.0,0.0,94,0.00,,,0.00,VWS V14.01,2013-09-03 02:51:00,
2013-09-02 22:56:00,69.6,67.8,29.77,West,280,0.0,0.0,94,0.00,,,0.00,VWS V14.01,2013-09-03 02:56:00,
2013-09-02 23:01:00,69.4,67.6,29.79,West,280,0.0,0.0,94,0.00,,,0.00,VWS V14.01,2013-09-03 03:01:00,
2013-09-02 23:06:00,69.4,67.9,29.79,West,280,0.0,0.0,95,0.00,,,0.00,VWS V14.01,2013-09-03 03:06:00,
2013-09-02 23:11:00,69.4,67.9,29.79,West,280,0.0,0.0,95,0.00,,,0.00,VWS V14.01,2013-09-03 03:11:00,
2013-09-02 23:16:00,69.3,67.8,29.78,West,280,0.0,0.0,95,0.00,,,0.00,VWS V14.01,2013-09-03 03:16:00,
2013-09-02 23:21:00,69.1,67.6,29.78,West,280,0.0,0.0,95,0.00,,,0.00,VWS V14.01,2013-09-03 03:21:00,
2013-09-02 23:27:00,69.1,67.6,29.78,West,280,0.0,0.0,95,0.00,,,0.00,VWS V14.01,2013-09-03 03:27:00,
2013-09-02 23:32:00,68.9,67.4,29.78,West,280,0.0,0.0,95,0.00,,,0.00,VWS V14.01,2013-09-03 03:32:00,
2013-09-02 23:37:00,68.9,67.4,29.78,West,280,0.0,0.0,95,0.00,,,0.00,VWS V14.01,2013-09-03 03:37:00,
2013-09-02 23:42:00,68.8,67.3,29.78,West,280,0.0,0.0,95,0.00,,,0.00,VWS V14.01,2013-09-03 03:42:00,
2013-09-02 23:47:00,68.8,67.3,29.80,West,280,0.0,0.0,95,0.00,,,0.00,VWS V14.01,2013-09-03 03:47:00,
2013-09-02 23:52:00,68.8,67.3,29.80,West,280,0.0,0.0,95,0.00,,,0.00,VWS V14.01,2013-09-03 03:52:00,
2013-09-02 23:57:00,68.9,67.7,29.80,West,280,0.0,0.0,96,0.00,,,0.00,VWS V14.01,2013-09-03 03:57:00,